createdAt,value
2023-02-12T00:00:44.956Z,6.10
2023-02-12T00:03:14.531Z,5.85
2023-02-12T00:05:44.436Z,5.13
2023-02-12T00:08:12.464Z,4.72
2023-02-12T00:10:43.282Z,5.68
2023-02-12T00:13:11.636Z,5.13
2023-02-12T00:15:43.352Z,4.50
2023-02-12T00:18:10.906Z,4.95
2023-02-12T00:20:38.984Z,4.55
2023-02-12T00:23:07.116Z,4.57
2023-02-12T00:25:35.113Z,3.97
2023-02-12T00:28:02.301Z,4.50
2023-02-12T00:30:30.035Z,4.50
2023-02-12T00:32:57.387Z,4.82
2023-02-12T00:35:24.678Z,3.92
2023-02-12T00:37:51.871Z,3.47
2023-02-12T00:40:19.545Z,3.55
2023-02-12T00:42:46.757Z,3.42
2023-02-12T00:45:14.534Z,3.45
2023-02-12T00:47:41.724Z,3.05
2023-02-12T00:50:09.401Z,2.83
2023-02-12T00:52:36.845Z,2.83
2023-02-12T00:55:05.043Z,2.78
2023-02-12T00:57:33.630Z,3.75
2023-02-12T01:00:00.818Z,3.58
2023-02-12T01:02:28.040Z,3.45
2023-02-12T01:04:55.273Z,2.75
2023-02-12T01:07:25.295Z,3.28
2023-02-12T01:09:52.701Z,3.72
2023-02-12T01:12:19.855Z,3.78
2023-02-12T01:14:47.232Z,3.33
2023-02-12T01:17:14.637Z,4.20
2023-02-12T01:19:45.999Z,3.75
2023-02-12T01:22:13.413Z,4.28
2023-02-12T01:24:41.056Z,3.92
2023-02-12T01:27:08.512Z,4.25
2023-02-12T01:29:36.654Z,5.43
2023-02-12T01:32:04.017Z,4.78
2023-02-12T01:34:31.424Z,3.53
2023-02-12T01:36:58.521Z,4.15
2023-02-12T01:39:28.688Z,4.13
2023-02-12T01:41:56.252Z,4.65
2023-02-12T01:44:26.494Z,4.57
2023-02-12T01:46:59.550Z,4.88
2023-02-12T01:49:40.604Z,4.47
2023-02-12T01:52:30.615Z,4.97
2023-02-12T01:55:07.704Z,4.05
2023-02-12T01:57:40.169Z,5.53
2023-02-12T02:00:14.744Z,5.07
2023-02-12T02:02:45.177Z,4.68
2023-02-12T02:05:26.779Z,4.78
2023-02-12T02:07:54.515Z,5.22
2023-02-12T02:10:21.667Z,4.60
2023-02-12T02:13:07.234Z,5.75
2023-02-12T02:15:36.917Z,4.25
2023-02-12T02:18:20.276Z,5.28
2023-02-12T02:23:57.592Z,4.53
2023-02-12T02:26:38.969Z,4.45
2023-02-12T02:29:21.221Z,6.63
2023-02-12T02:32:14.692Z,4.82
2023-02-12T02:34:57.195Z,4.47
2023-02-12T02:37:28.360Z,4.30
2023-02-12T02:40:01.173Z,4.07
2023-02-12T02:42:44.763Z,3.42
2023-02-12T02:47:47.885Z,3.88
2023-02-12T02:50:20.135Z,3.30
2023-02-12T02:52:52.797Z,3.40
2023-02-12T02:55:22.689Z,2.85
2023-02-12T02:57:57.766Z,2.65
2023-02-12T03:00:34.914Z,2.90
2023-02-12T03:03:30.752Z,2.60
2023-02-12T03:06:38.966Z,2.70
2023-02-12T03:09:22.642Z,3.03
2023-02-12T03:14:23.792Z,2.78
2023-02-12T03:16:59.845Z,2.70
2023-02-12T03:19:43.193Z,2.50
2023-02-12T03:22:14.507Z,3.13
2023-02-12T03:24:53.868Z,3.42
2023-02-12T03:27:32.874Z,3.78
2023-02-12T03:30:01.200Z,3.90
2023-02-12T03:32:41.471Z,3.53
2023-02-12T03:35:17.126Z,3.60
2023-02-12T03:37:49.794Z,4.25
2023-02-12T03:40:22.519Z,3.65
2023-02-12T03:42:58.105Z,4.07
2023-02-12T03:45:44.077Z,4.00
2023-02-12T03:48:35.980Z,3.70
2023-02-12T03:51:15.445Z,3.65
2023-02-12T03:53:44.414Z,3.85
2023-02-12T03:56:30.290Z,3.70
2023-02-12T03:58:58.412Z,3.55
2023-02-12T04:01:27.764Z,3.35
2023-02-12T04:03:58.167Z,3.00
2023-02-12T04:06:28.011Z,3.47
2023-02-12T04:08:59.448Z,3.60
2023-02-12T04:11:29.539Z,2.85
2023-02-12T04:14:34.035Z,3.28
2023-02-12T04:17:20.848Z,2.92
2023-02-12T04:20:22.555Z,2.55
2023-02-12T04:23:28.221Z,2.83
2023-02-12T04:26:17.006Z,3.42
2023-02-12T04:29:05.838Z,2.65
2023-02-12T04:31:52.178Z,2.80
2023-02-12T04:34:39.844Z,3.35
2023-02-12T04:37:19.786Z,3.30
2023-02-12T04:39:49.987Z,3.45
2023-02-12T04:42:17.244Z,3.10
2023-02-12T04:44:44.794Z,2.75
2023-02-12T04:47:13.701Z,2.38
2023-02-12T04:49:41.192Z,2.70
2023-02-12T04:52:09.038Z,3.13
2023-02-12T04:54:36.297Z,2.70
2023-02-12T04:57:03.803Z,2.75
2023-02-12T04:59:31.011Z,2.67
2023-02-12T05:01:58.062Z,2.70
2023-02-12T05:04:25.126Z,3.67
2023-02-12T05:06:52.197Z,2.80
2023-02-12T05:09:20.945Z,2.35
2023-02-12T05:11:48.228Z,2.65
2023-02-12T05:14:15.638Z,2.42
2023-02-12T05:16:42.928Z,2.95
2023-02-12T05:19:10.339Z,2.97
2023-02-12T05:21:38.823Z,2.50
2023-02-12T05:24:06.963Z,2.53
2023-02-12T05:26:34.363Z,2.53
2023-02-12T05:29:01.905Z,2.72
2023-02-12T05:31:29.517Z,2.42
2023-02-12T05:33:56.747Z,2.00
2023-02-12T05:36:25.008Z,2.30
2023-02-12T05:38:58.434Z,2.47
2023-02-12T05:41:25.640Z,2.25
2023-02-12T05:43:53.250Z,1.90
2023-02-12T05:46:22.328Z,2.33
2023-02-12T05:48:49.560Z,3.15
2023-02-12T05:51:23.150Z,2.17
2023-02-12T05:53:52.195Z,2.03
2023-02-12T05:56:23.832Z,1.98
2023-02-12T05:59:19.176Z,2.38
2023-02-12T06:01:47.990Z,1.98
2023-02-12T06:04:18.385Z,1.92
2023-02-12T06:06:46.083Z,1.98
2023-02-12T06:09:14.150Z,1.80
2023-02-12T06:11:42.127Z,2.60
2023-02-12T06:14:14.015Z,1.77
2023-02-12T06:16:41.288Z,1.67
2023-02-12T06:19:08.594Z,2.10
2023-02-12T06:21:35.742Z,2.28
2023-02-12T06:24:02.888Z,1.60
2023-02-12T06:26:30.048Z,1.50
2023-02-12T06:28:57.150Z,2.08
2023-02-12T06:31:27.486Z,2.08
2023-02-12T06:33:56.576Z,2.95
2023-02-12T06:36:24.667Z,1.42
2023-02-12T06:38:52.495Z,1.90
2023-02-12T06:41:20.155Z,1.70
2023-02-12T06:43:47.463Z,1.95
2023-02-12T06:46:15.269Z,1.95
2023-02-12T06:48:42.723Z,1.60
2023-02-12T06:51:13.215Z,1.70
2023-02-12T06:53:40.505Z,1.88
2023-02-12T06:56:13.570Z,1.83
2023-02-12T06:58:42.681Z,1.70
2023-02-12T07:01:19.783Z,1.73
2023-02-12T07:04:05.400Z,1.98
2023-02-12T07:06:35.848Z,1.85
2023-02-12T07:09:04.625Z,1.80
2023-02-12T07:11:37.915Z,1.75
2023-02-12T07:14:06.684Z,2.17
2023-02-12T07:16:34.383Z,1.75
2023-02-12T07:19:03.355Z,1.40
2023-02-12T07:21:32.329Z,1.50
2023-02-12T07:24:00.411Z,2.30
2023-02-12T07:26:27.485Z,2.50
2023-02-12T07:28:54.821Z,1.88
2023-02-12T07:31:24.588Z,1.55
2023-02-12T07:33:56.348Z,1.92
2023-02-12T07:36:24.389Z,1.85
2023-02-12T07:38:51.618Z,1.73
2023-02-12T07:41:25.105Z,1.88
2023-02-12T07:43:57.794Z,1.98
2023-02-12T07:46:31.855Z,1.90
2023-02-12T07:49:01.305Z,1.88
2023-02-12T07:51:29.213Z,1.60
2023-02-12T07:53:56.645Z,1.90
2023-02-12T07:56:31.036Z,1.80
2023-02-12T07:59:03.223Z,2.05
2023-02-12T08:01:33.266Z,1.48
2023-02-12T08:04:13.452Z,1.67
2023-02-12T08:06:43.490Z,1.80
2023-02-12T08:09:13.588Z,1.58
2023-02-12T08:11:42.406Z,1.73
2023-02-12T08:14:12.215Z,1.90
2023-02-12T08:16:40.889Z,1.88
2023-02-12T08:19:17.843Z,2.10
2023-02-12T08:21:50.253Z,1.77
2023-02-12T08:24:17.686Z,2.08
2023-02-12T08:26:45.419Z,1.90
2023-02-12T08:29:15.721Z,2.30
2023-02-12T08:31:45.027Z,1.83
2023-02-12T08:34:21.287Z,1.73
2023-02-12T08:36:50.303Z,2.22
2023-02-12T08:39:19.183Z,2.40
2023-02-12T08:41:47.476Z,1.88
2023-02-12T08:44:15.639Z,2.15
2023-02-12T08:46:50.261Z,1.48
2023-02-12T08:49:20.224Z,1.92
2023-02-12T08:51:50.136Z,1.40
2023-02-12T08:54:28.007Z,1.92
2023-02-12T08:56:57.324Z,2.10
2023-02-12T08:59:24.771Z,1.80
2023-02-12T09:01:53.625Z,2.03
2023-02-12T09:04:26.547Z,1.63
2023-02-12T09:06:55.157Z,1.85
2023-02-12T09:09:22.595Z,1.92
2023-02-12T09:11:50.592Z,1.50
2023-02-12T09:14:25.674Z,2.15
2023-02-12T09:16:53.873Z,2.03
2023-02-12T09:19:21.401Z,2.70
2023-02-12T09:21:55.251Z,1.70
2023-02-12T09:24:23.435Z,1.23
2023-02-12T09:26:50.768Z,1.83
2023-02-12T09:29:17.869Z,1.92
2023-02-12T09:31:45.530Z,1.55
2023-02-12T09:34:12.744Z,1.30
2023-02-12T09:36:39.839Z,1.50
2023-02-12T09:39:09.321Z,2.00
2023-02-12T09:42:06.189Z,1.25
2023-02-12T09:44:37.353Z,1.80
2023-02-12T09:47:13.602Z,2.00
2023-02-12T09:50:09.757Z,1.60
2023-02-12T09:52:39.947Z,1.75
2023-02-12T09:55:11.245Z,1.70
2023-02-12T09:57:39.606Z,1.60
2023-02-12T10:00:18.391Z,1.65
2023-02-12T10:02:47.887Z,1.55
2023-02-12T10:05:19.065Z,1.25
2023-02-12T10:08:02.978Z,1.40
2023-02-12T10:10:52.746Z,1.70
2023-02-12T10:13:22.561Z,1.65
2023-02-12T10:16:10.493Z,1.40
2023-02-12T10:18:59.218Z,1.38
2023-02-12T10:21:46.552Z,1.30
2023-02-12T10:24:37.642Z,1.80
2023-02-12T10:27:17.440Z,1.55
2023-02-12T10:29:47.648Z,1.58
2023-02-12T10:32:26.530Z,1.60
2023-02-12T10:34:56.420Z,2.10
2023-02-12T10:37:37.694Z,1.70
2023-02-12T10:40:27.759Z,1.83
2023-02-12T10:42:55.194Z,2.00
2023-02-12T10:45:29.298Z,1.70
2023-02-12T10:48:05.684Z,1.50
2023-02-12T10:50:57.349Z,1.75
2023-02-12T10:53:35.587Z,1.75
2023-02-12T10:56:25.986Z,1.40
2023-02-12T10:59:01.485Z,1.50
2023-02-12T11:01:33.458Z,1.85
2023-02-12T11:04:19.518Z,1.63
2023-02-12T11:07:08.203Z,1.60
2023-02-12T11:09:37.150Z,1.70
2023-02-12T11:12:04.459Z,1.50
2023-02-12T11:14:31.741Z,1.50
2023-02-12T11:17:02.755Z,1.50
2023-02-12T11:19:32.097Z,1.35
2023-02-12T11:22:14.827Z,1.35
2023-02-12T11:24:41.944Z,1.50
2023-02-12T11:27:30.567Z,1.70
2023-02-12T11:30:16.166Z,1.88
2023-02-12T11:32:44.414Z,1.27
2023-02-12T11:35:14.008Z,1.70
2023-02-12T11:37:44.073Z,1.35
2023-02-12T11:40:35.767Z,1.88
2023-02-12T11:43:07.568Z,1.50
2023-02-12T11:45:52.502Z,1.70
2023-02-12T11:48:33.890Z,1.80
2023-02-12T11:51:03.769Z,1.48
2023-02-12T11:53:34.518Z,1.45
2023-02-12T11:56:14.255Z,1.60
2023-02-12T11:58:41.681Z,1.70
2023-02-12T12:01:42.015Z,1.80
2023-02-12T12:04:14.744Z,1.77
2023-02-12T12:06:49.087Z,1.48
2023-02-12T12:09:36.145Z,1.80
2023-02-12T12:12:25.853Z,1.90
2023-02-12T12:15:18.061Z,1.92
2023-02-12T12:18:14.938Z,1.83
2023-02-12T12:20:49.624Z,1.80
2023-02-12T12:23:22.125Z,1.83
2023-02-12T12:26:01.536Z,1.42
2023-02-12T12:28:45.649Z,1.85
2023-02-12T12:31:16.247Z,1.85
2023-02-12T12:34:03.364Z,2.10
2023-02-12T12:36:47.644Z,1.50
2023-02-12T12:39:26.958Z,2.03
2023-02-12T12:42:33.013Z,1.70
2023-02-12T12:45:13.602Z,1.33
2023-02-12T12:48:01.350Z,1.90
2023-02-12T12:50:31.389Z,1.25
2023-02-12T12:53:04.563Z,1.70
2023-02-12T12:55:50.158Z,1.73
2023-02-12T12:58:49.284Z,1.70
2023-02-12T13:01:44.630Z,1.63
2023-02-12T13:04:24.039Z,1.60
2023-02-12T13:06:57.144Z,1.67
2023-02-12T13:09:34.621Z,1.90
2023-02-12T13:12:33.924Z,1.15
2023-02-12T13:15:27.876Z,1.27
2023-02-12T13:18:13.414Z,1.70
2023-02-12T13:21:28.490Z,1.58
2023-02-12T13:24:21.981Z,1.63
2023-02-12T13:26:55.955Z,1.67
2023-02-12T13:29:35.312Z,2.03
2023-02-12T13:32:37.200Z,1.77
2023-02-12T13:35:07.940Z,1.67
2023-02-12T13:37:51.957Z,1.35
2023-02-12T13:40:25.561Z,1.70
2023-02-12T13:43:11.024Z,1.67
2023-02-12T13:46:10.863Z,1.95
2023-02-12T13:48:50.361Z,1.73
2023-02-12T13:51:26.615Z,1.95
2023-02-12T13:53:59.987Z,2.20
2023-02-12T13:56:44.476Z,2.47
2023-02-12T13:59:33.653Z,1.50
2023-02-12T14:02:03.984Z,2.42
2023-02-12T14:04:40.206Z,1.42
2023-02-12T14:07:11.108Z,1.83
2023-02-12T14:09:50.328Z,1.63
2023-02-12T14:12:27.966Z,1.80
2023-02-12T14:15:21.433Z,1.55
2023-02-12T14:17:56.599Z,2.00
2023-02-12T14:20:28.275Z,1.60
2023-02-12T14:23:02.772Z,1.88
2023-02-12T14:25:38.135Z,2.00
2023-02-12T14:28:24.419Z,2.40
2023-02-12T14:31:37.121Z,2.10
2023-02-12T14:34:07.853Z,1.90
2023-02-12T14:36:41.704Z,2.00
2023-02-12T14:39:21.172Z,2.17
2023-02-12T14:41:58.147Z,2.22
2023-02-12T14:44:28.909Z,2.00
2023-02-12T14:47:21.580Z,1.60
2023-02-12T14:50:02.257Z,1.75
2023-02-12T14:52:38.482Z,1.90
2023-02-12T14:55:19.775Z,2.15
2023-02-12T14:57:48.894Z,2.15
2023-02-12T15:03:42.686Z,1.88
2023-02-12T15:06:55.354Z,1.55
2023-02-12T15:09:36.247Z,1.63
2023-02-12T15:12:11.685Z,2.05
2023-02-12T15:14:56.704Z,2.28
2023-02-12T15:17:32.775Z,1.90
2023-02-12T15:20:20.343Z,1.80
2023-02-12T15:22:47.570Z,1.65
2023-02-12T15:25:17.035Z,2.20
2023-02-12T15:27:46.913Z,1.80
2023-02-12T15:30:25.868Z,1.55
2023-02-12T15:32:58.818Z,2.22
2023-02-12T15:35:35.233Z,1.73
2023-02-12T15:38:04.516Z,2.25
2023-02-12T15:40:32.265Z,1.75
2023-02-12T15:43:07.753Z,2.13
2023-02-12T15:45:36.852Z,1.63
2023-02-12T15:48:09.825Z,2.20
2023-02-12T15:51:15.649Z,2.28
2023-02-12T15:53:44.404Z,1.85
2023-02-12T15:56:17.760Z,1.83
2023-02-12T15:58:56.774Z,2.05
2023-02-12T16:01:29.651Z,2.10
2023-02-12T16:04:03.324Z,1.92
2023-02-12T16:06:34.351Z,1.83
2023-02-12T16:09:28.889Z,2.00
2023-02-12T16:11:59.092Z,1.45
2023-02-12T16:14:48.309Z,2.13
2023-02-12T16:17:32.282Z,2.35
2023-02-12T16:20:06.700Z,1.95
2023-02-12T16:22:45.403Z,1.98
2023-02-12T16:25:35.356Z,1.88
2023-02-12T16:28:22.865Z,1.90
2023-02-12T16:30:52.026Z,1.92
2023-02-12T16:33:53.404Z,1.90
2023-02-12T16:36:20.608Z,2.10
2023-02-12T16:38:53.259Z,2.03
2023-02-12T16:41:20.598Z,2.43
2023-02-12T16:44:08.838Z,3.13
2023-02-12T16:46:51.389Z,2.25
2023-02-12T16:49:21.170Z,1.90
2023-02-12T16:51:49.079Z,1.60
2023-02-12T16:54:34.509Z,1.92
2023-02-12T16:57:02.452Z,2.03
2023-02-12T16:59:32.603Z,2.05
2023-02-12T17:02:09.796Z,2.17
2023-02-12T17:04:36.965Z,2.20
2023-02-12T17:07:04.405Z,1.77
2023-02-12T17:09:32.510Z,2.20
2023-02-12T17:12:01.881Z,2.25
2023-02-12T17:14:29.944Z,2.13
2023-02-12T17:17:01.228Z,2.13
2023-02-12T17:19:34.362Z,2.40
2023-02-12T17:22:02.752Z,2.28
2023-02-12T17:24:37.986Z,2.15
2023-02-12T17:27:08.189Z,1.98
2023-02-12T17:29:36.731Z,1.90
2023-02-12T17:32:04.187Z,2.30
2023-02-12T17:34:39.701Z,2.05
2023-02-12T17:37:18.182Z,1.80
2023-02-12T17:39:54.884Z,2.58
2023-02-12T17:42:25.261Z,2.25
2023-02-12T17:44:53.126Z,2.15
2023-02-12T17:47:25.170Z,1.85
2023-02-12T17:49:56.297Z,2.15
2023-02-12T17:52:23.678Z,2.22
2023-02-12T17:54:50.692Z,1.90
2023-02-12T17:57:18.719Z,2.20
2023-02-12T17:59:45.866Z,1.65
2023-02-12T18:02:13.036Z,2.15
2023-02-12T18:04:40.778Z,1.70
2023-02-12T18:07:08.448Z,2.08
2023-02-12T18:09:37.243Z,1.63
2023-02-12T18:12:04.595Z,1.92
2023-02-12T18:14:31.776Z,1.90
2023-02-12T18:16:59.333Z,2.17
2023-02-12T18:19:28.860Z,2.10
2023-02-12T18:21:56.117Z,1.80
2023-02-12T18:24:23.413Z,2.30
2023-02-12T18:26:50.853Z,1.85
2023-02-12T18:29:18.121Z,2.20
2023-02-12T18:31:45.444Z,2.05
2023-02-12T18:34:12.607Z,1.73
2023-02-12T18:36:39.894Z,2.35
2023-02-12T18:39:07.234Z,2.20
2023-02-12T18:41:35.946Z,2.05
2023-02-12T18:44:03.444Z,2.50
2023-02-12T18:46:31.926Z,2.63
2023-02-12T18:48:59.577Z,2.30
2023-02-12T18:51:29.355Z,2.15
2023-02-12T18:54:02.561Z,2.22
2023-02-12T18:56:31.721Z,2.30
2023-02-12T18:59:00.431Z,2.63
2023-02-12T19:01:29.014Z,2.60
2023-02-12T19:03:59.142Z,2.78
2023-02-12T19:06:28.211Z,3.05
2023-02-12T19:09:00.546Z,2.75
2023-02-12T19:11:29.055Z,2.40
2023-02-12T19:13:56.914Z,2.50
2023-02-12T19:16:25.391Z,2.88
2023-02-12T19:18:55.018Z,2.30
2023-02-12T19:21:23.317Z,2.13
2023-02-12T19:23:53.145Z,2.42
2023-02-12T19:26:20.451Z,3.00
2023-02-12T19:28:47.712Z,2.97
2023-02-12T19:31:20.418Z,2.65
2023-02-12T19:33:50.554Z,2.40
2023-02-12T19:36:24.984Z,3.10
2023-02-12T19:39:19.314Z,2.63
2023-02-12T19:46:52.892Z,2.42
2023-02-12T19:49:53.087Z,2.22
2023-02-12T19:53:14.170Z,2.40
2023-02-12T19:55:41.712Z,3.20
2023-02-12T19:58:11.892Z,2.70
2023-02-12T20:00:40.436Z,2.30
2023-02-12T20:03:11.548Z,2.80
2023-02-12T20:05:45.110Z,3.00
2023-02-12T20:08:14.491Z,2.97
2023-02-12T20:10:42.020Z,3.00
2023-02-12T20:13:09.201Z,2.60
2023-02-12T20:15:43.284Z,3.13
2023-02-12T20:18:13.508Z,2.90
2023-02-12T20:20:49.241Z,2.93
2023-02-12T20:23:28.465Z,3.03
2023-02-12T20:25:55.739Z,3.05
2023-02-12T20:28:26.161Z,3.08
2023-02-12T20:31:33.173Z,2.90
2023-02-12T20:34:08.375Z,3.58
2023-02-12T20:40:21.688Z,2.85
2023-02-12T20:44:02.203Z,2.72
2023-02-12T20:55:02.773Z,3.28
2023-02-12T20:57:54.627Z,3.10
2023-02-12T21:00:30.060Z,2.63
2023-02-12T21:03:04.919Z,2.75
2023-02-12T21:05:33.152Z,2.40
2023-02-12T21:08:00.408Z,2.65
2023-02-12T21:10:31.474Z,3.30
2023-02-12T21:12:58.910Z,2.90
2023-02-12T21:15:26.047Z,3.17
2023-02-12T21:17:53.374Z,3.70
2023-02-12T21:20:20.915Z,3.50
2023-02-12T21:22:48.212Z,2.97
2023-02-12T21:25:15.711Z,2.92
2023-02-12T21:27:44.927Z,2.95
2023-02-12T21:30:12.509Z,3.03
2023-02-12T21:32:40.057Z,2.97
2023-02-12T21:35:07.789Z,2.88
2023-02-12T21:37:35.363Z,2.75
2023-02-12T21:40:04.800Z,2.50
2023-02-12T21:42:31.964Z,2.53
2023-02-12T21:45:00.091Z,2.50
2023-02-12T21:47:27.474Z,2.60
2023-02-12T21:49:57.694Z,2.63
2023-02-12T21:52:24.830Z,2.13
2023-02-12T21:54:53.905Z,2.00
2023-02-12T21:57:22.041Z,2.38
2023-02-12T21:59:49.184Z,2.50
2023-02-12T22:02:18.818Z,2.53
2023-02-12T22:04:45.951Z,2.83
2023-02-12T22:07:13.041Z,2.60
2023-02-12T22:09:40.175Z,2.45
2023-02-12T22:12:07.619Z,2.15
2023-02-12T22:14:34.764Z,2.20
2023-02-12T22:17:01.904Z,2.45
2023-02-12T22:19:29.239Z,2.28
2023-02-12T22:21:56.323Z,2.30
2023-02-12T22:28:34.967Z,2.53
2023-02-12T22:31:06.275Z,2.72
2023-02-12T22:33:34.197Z,2.80
2023-02-12T22:36:06.358Z,2.50
2023-02-12T22:38:35.031Z,2.42
2023-02-12T22:41:02.535Z,2.17
2023-02-12T22:43:31.295Z,2.22
2023-02-12T22:45:59.157Z,2.10
2023-02-12T22:48:28.429Z,2.80
2023-02-12T22:50:56.716Z,2.58
2023-02-12T22:53:25.545Z,2.45
2023-02-12T22:55:53.335Z,2.80
2023-02-12T22:58:20.467Z,2.30
2023-02-12T23:00:47.626Z,2.60
2023-02-12T23:03:14.756Z,3.00
2023-02-12T23:05:42.183Z,2.47
2023-02-12T23:08:09.918Z,2.88
2023-02-12T23:10:37.232Z,2.80
2023-02-12T23:13:04.506Z,2.88
2023-02-12T23:15:33.116Z,2.92
2023-02-12T23:18:00.449Z,3.22
2023-02-12T23:20:28.015Z,2.80
2023-02-12T23:22:55.344Z,3.10
2023-02-12T23:25:22.383Z,2.67
2023-02-12T23:27:49.548Z,3.35
2023-02-12T23:30:16.991Z,3.20
2023-02-12T23:32:44.172Z,2.95
2023-02-12T23:35:11.695Z,2.90
2023-02-12T23:37:38.838Z,2.50
2023-02-12T23:40:07.893Z,3.00
2023-02-12T23:42:35.107Z,2.83
2023-02-12T23:45:02.326Z,3.40
2023-02-12T23:47:31.438Z,2.83
2023-02-12T23:49:58.546Z,2.67
2023-02-12T23:52:25.663Z,2.90
2023-02-12T23:54:52.852Z,2.78
2023-02-12T23:57:20.593Z,2.80
2023-02-12T23:59:47.689Z,3.13
